Time;durP1;ratioP1;P1;durP2;ratioP2;P2;SDS_P1;SDS_P2;PMS_P1;PMS_P2;Temp;Humidity;BMP_temperature;BMP_pressure;BME280_temperature;BME280_humidity;BME280_pressure;Samples;Min_cycle;Max_cycle;Signal;HPM_P1;HPM_P2
2022/10/04 00:01:09;;;;;;;5.10;4.20;;;13.10;99.90;;;;;;5015502;28;20216;-74
2022/10/04 00:04:06;;;;;;;9.35;3.97;;;13.10;99.90;;;;;;5033803;28;20191;-73
2022/10/04 00:06:32;;;;;;;11.93;4.50;;;13.10;99.90;;;;;;5032159;28;20181;-73
2022/10/04 00:09:13;;;;;;;5.43;4.57;;;13.20;99.90;;;;;;5033507;28;20158;-73
2022/10/04 00:11:44;;;;;;;7.22;4.25;;;13.10;99.90;;;;;;5033565;28;20676;-73
2022/10/04 00:14:21;;;;;;;9.07;3.63;;;13.20;99.90;;;;;;5015218;28;20269;-74
2022/10/04 00:16:48;;;;;;;6.22;4.15;;;13.10;99.90;;;;;;5033352;28;20803;-73
2022/10/04 00:19:13;;;;;;;9.50;4.10;;;13.20;99.90;;;;;;5015073;28;20166;-73
2022/10/04 00:21:52;;;;;;;7.60;3.40;;;13.10;99.90;;;;;;5033134;28;20186;-73
2022/10/04 00:24:22;;;;;;;3.88;3.22;;;13.10;99.90;;;;;;4998998;28;20177;-74
2022/10/04 00:26:48;;;;;;;4.55;3.35;;;13.20;99.90;;;;;;5015381;28;20174;-74
2022/10/04 00:29:26;;;;;;;8.13;4.03;;;13.10;99.90;;;;;;5032605;28;20227;-75
2022/10/04 00:32:10;;;;;;;4.38;2.92;;;13.10;99.90;;;;;;5032834;28;20177;-74
2022/10/04 00:34:49;;;;;;;4.30;3.47;;;13.10;99.90;;;;;;5015244;28;20173;-74
2022/10/04 00:37:20;;;;;;;6.07;3.97;;;13.10;99.90;;;;;;5032932;28;20173;-74
2022/10/04 00:40:15;;;;;;;7.93;4.00;;;13.10;99.90;;;;;;5032545;28;20280;-74
2022/10/04 00:43:05;;;;;;;11.77;4.00;;;13.10;99.90;;;;;;5014541;28;20186;-74
2022/10/04 00:45:58;;;;;;;5.28;3.22;;;13.10;99.90;;;;;;5015101;28;20653;-73
2022/10/04 00:48:35;;;;;;;6.55;3.50;;;13.10;99.90;;;;;;5026115;28;20190;-73
2022/10/04 00:51:09;;;;;;;6.53;4.22;;;13.10;99.90;;;;;;5015448;28;20201;-73
2022/10/04 00:53:57;;;;;;;6.70;3.50;;;13.10;99.90;;;;;;5032587;28;20174;-73
2022/10/04 00:56:33;;;;;;;5.18;3.55;;;13.10;99.90;;;;;;5032571;28;20197;-73
2022/10/04 00:58:58;;;;;;;4.85;3.47;;;13.10;99.90;;;;;;5032516;28;20165;-73
2022/10/04 01:01:27;;;;;;;6.63;4.03;;;13.10;99.90;;;;;;5014300;28;20205;-74
2022/10/04 01:03:56;;;;;;;9.88;5.00;;;13.00;99.90;;;;;;5014774;28;20248;-74
2022/10/04 01:06:22;;;;;;;6.13;3.60;;;13.00;99.90;;;;;;5032263;28;20170;-74
2022/10/04 01:08:55;;;;;;;8.30;3.75;;;13.00;99.90;;;;;;5032436;28;20184;-73
2022/10/04 01:11:37;;;;;;;6.75;3.67;;;13.00;99.90;;;;;;5014058;28;20297;-74
2022/10/04 01:14:07;;;;;;;5.75;3.53;;;12.90;99.90;;;;;;5014665;28;20181;-74
2022/10/04 01:16:35;;;;;;;6.20;3.63;;;12.90;99.90;;;;;;5032206;28;20525;-74
2022/10/04 01:19:23;;;;;;;6.10;3.47;;;12.90;99.90;;;;;;4998139;28;20178;-73
2022/10/04 01:22:04;;;;;;;6.38;3.65;;;12.90;99.90;;;;;;5048458;23;20218;-72
2022/10/04 01:24:34;;;;;;;5.50;3.10;;;12.90;99.90;;;;;;5012230;28;20653;-72
2022/10/04 01:27:01;;;;;;;3.75;2.72;;;12.90;99.90;;;;;;5011372;28;20174;-76
2022/10/04 01:29:31;;;;;;;7.45;3.70;;;12.90;99.90;;;;;;5023349;28;20244;-73
2022/10/04 01:31:59;;;;;;;5.75;3.50;;;12.80;99.90;;;;;;5031646;28;20182;-73
2022/10/04 01:34:27;;;;;;;5.22;3.10;;;12.80;99.90;;;;;;5031616;28;20537;-73
2022/10/04 01:36:56;;;;;;;5.25;3.53;;;12.80;99.90;;;;;;5031768;28;20532;-75
2022/10/04 01:39:24;;;;;;;10.52;4.82;;;12.80;99.90;;;;;;5031510;28;20169;-73
2022/10/04 01:42:05;;;;;;;5.00;3.63;;;12.70;99.90;;;;;;5013802;28;20193;-73
2022/10/04 01:45:13;;;;;;;5.47;4.15;;;12.70;99.90;;;;;;5031727;28;20645;-73
2022/10/04 01:47:56;;;;;;;6.97;3.95;;;12.70;99.90;;;;;;4977512;28;20178;-73
2022/10/04 01:50:35;;;;;;;5.63;3.65;;;12.70;99.90;;;;;;5031171;28;20193;-73
2022/10/04 01:53:13;;;;;;;9.70;3.97;;;12.70;99.90;;;;;;5031333;28;20193;-73
2022/10/04 01:55:43;;;;;;;7.10;3.80;;;12.70;99.90;;;;;;5031502;28;20165;-72
2022/10/04 01:58:13;;;;;;;4.57;3.10;;;12.70;99.90;;;;;;5031267;28;20178;-73
2022/10/04 02:00:50;;;;;;;9.77;4.25;;;12.70;99.90;;;;;;5013925;28;20172;-73
2022/10/04 02:03:28;;;;;;;4.22;3.10;;;12.70;99.90;;;;;;5013709;28;20599;-73
2022/10/04 02:05:59;;;;;;;8.48;3.92;;;12.70;99.90;;;;;;5031515;28;20832;-73
2022/10/04 02:08:32;;;;;;;4.15;3.17;;;12.70;99.90;;;;;;5013666;28;20254;-73
2022/10/04 02:11:00;;;;;;;6.90;3.65;;;12.70;99.90;;;;;;5031156;28;20204;-73
2022/10/04 02:13:32;;;;;;;6.65;3.50;;;12.70;99.90;;;;;;5031324;28;20166;-74
2022/10/04 02:15:58;;;;;;;7.50;3.53;;;12.80;99.90;;;;;;5031386;28;20162;-73
2022/10/04 02:18:26;;;;;;;4.97;4.35;;;12.80;99.90;;;;;;5031290;28;20209;-72
2022/10/04 02:20:53;;;;;;;8.10;4.30;;;12.80;99.90;;;;;;5031041;28;20166;-75
2022/10/04 02:23:21;;;;;;;8.00;3.75;;;12.80;99.90;;;;;;5031050;28;20220;-75
2022/10/04 02:25:47;;;;;;;7.03;3.95;;;12.70;99.90;;;;;;5031176;28;20304;-74
2022/10/04 02:28:15;;;;;;;6.07;3.65;;;12.70;99.90;;;;;;5031184;28;20220;-73
2022/10/04 02:32:56;;;;;;;5.75;3.60;;;12.70;99.90;;;;;;5030965;28;20288;-74
2022/10/04 02:33:32;;;;;;;5.32;3.55;;;12.60;99.90;;;;;;5013314;28;20182;-74
2022/10/04 02:35:58;;;;;;;7.05;3.63;;;12.60;99.90;;;;;;5031067;28;20253;-74
2022/10/04 02:38:32;;;;;;;5.95;3.53;;;12.60;99.90;;;;;;5015794;28;20539;-74
2022/10/04 02:41:07;;;;;;;8.90;4.47;;;12.60;99.90;;;;;;5034740;28;20231;-74
2022/10/04 02:43:45;;;;;;;5.03;3.45;;;12.50;99.90;;;;;;5034917;28;20185;-74
2022/10/04 02:46:20;;;;;;;3.88;3.10;;;12.50;99.90;;;;;;5017205;28;20182;-74
2022/10/04 02:48:51;;;;;;;6.07;3.40;;;12.50;99.90;;;;;;5034926;28;20191;-74
2022/10/04 02:51:25;;;;;;;5.40;3.90;;;12.50;99.90;;;;;;5034262;28;20736;-74
2022/10/04 02:54:17;;;;;;;5.20;3.78;;;12.50;99.90;;;;;;5034844;28;20165;-74
2022/10/04 02:56:44;;;;;;;4.80;3.30;;;12.50;99.90;;;;;;5017005;28;20464;-73
2022/10/04 02:59:15;;;;;;;5.85;3.95;;;12.50;99.90;;;;;;5034474;28;20672;-73
2022/10/04 03:01:57;;;;;;;5.05;3.40;;;12.40;99.90;;;;;;5016788;28;20251;-73
2022/10/04 03:04:31;;;;;;;7.13;4.28;;;12.40;99.90;;;;;;5034507;28;20261;-73
2022/10/04 03:07:00;;;;;;;5.03;3.40;;;12.40;99.90;;;;;;5016864;28;20173;-74
2022/10/04 03:09:27;;;;;;;9.45;3.15;;;12.30;99.90;;;;;;5016344;28;20173;-74
2022/10/04 03:11:53;;;;;;;5.05;3.38;;;12.40;99.90;;;;;;5016579;28;20670;-74
2022/10/04 03:14:22;;;;;;;5.78;3.85;;;12.30;99.90;;;;;;5000624;28;20252;-74
2022/10/04 03:16:52;;;;;;;5.22;3.30;;;12.30;99.90;;;;;;5016554;28;20184;-74
2022/10/04 03:19:23;;;;;;;5.82;3.80;;;12.30;99.90;;;;;;5016197;28;20622;-74
2022/10/04 03:21:54;;;;;;;5.38;3.40;;;12.30;99.90;;;;;;5016338;28;20296;-74
2022/10/04 03:24:30;;;;;;;6.35;3.75;;;12.30;99.90;;;;;;5016693;28;20177;-74
2022/10/04 03:26:59;;;;;;;7.97;3.55;;;12.30;99.90;;;;;;5034184;28;20193;-74
2022/10/04 03:29:29;;;;;;;5.78;3.80;;;12.30;99.90;;;;;;5016157;28;20255;-74
2022/10/04 03:31:57;;;;;;;5.82;3.42;;;12.20;99.90;;;;;;5016221;28;20331;-74
2022/10/04 03:34:37;;;;;;;9.35;3.20;;;12.20;99.90;;;;;;5034172;28;20172;-74
2022/10/04 03:37:08;;;;;;;4.07;2.90;;;12.20;99.90;;;;;;5016257;28;20174;-74
2022/10/04 03:39:41;;;;;;;4.90;3.60;;;12.20;99.90;;;;;;5033732;28;20185;-74
2022/10/04 03:42:13;;;;;;;6.70;3.90;;;12.10;99.90;;;;;;5033608;28;20206;-74
2022/10/04 03:44:40;;;;;;;4.82;3.30;;;12.10;99.90;;;;;;5015990;28;20573;-74
2022/10/04 03:47:10;;;;;;;4.75;3.65;;;12.10;99.90;;;;;;5015812;28;20181;-74
2022/10/04 03:49:37;;;;;;;4.82;4.03;;;12.10;99.90;;;;;;5032308;28;20180;-74
2022/10/04 03:52:04;;;;;;;4.53;3.08;;;12.00;99.90;;;;;;4999379;28;20527;-74
2022/10/04 03:54:32;;;;;;;6.05;3.70;;;12.00;99.90;;;;;;5033514;28;20240;-73
2022/10/04 03:56:59;;;;;;;6.22;4.20;;;12.00;99.90;;;;;;4999554;28;20170;-74
2022/10/04 03:59:27;;;;;;;6.68;4.55;;;12.00;99.90;;;;;;5015297;28;20707;-73
2022/10/04 04:02:10;;;;;;;7.78;4.18;;;12.00;99.90;;;;;;5033276;28;20554;-74
2022/10/04 04:04:52;;;;;;;8.90;3.78;;;12.00;99.90;;;;;;5033502;28;20158;-74
2022/10/04 04:07:33;;;;;;;6.25;3.97;;;12.00;99.90;;;;;;5015715;28;20686;-74
2022/10/04 04:10:34;;;;;;;5.75;3.50;;;12.00;99.90;;;;;;5033090;28;20193;-74
2022/10/04 04:13:02;;;;;;;3.97;3.40;;;11.90;99.90;;;;;;4990748;28;20669;-74
2022/10/04 04:15:30;;;;;;;7.25;4.40;;;11.90;99.90;;;;;;5015421;28;20196;-74
2022/10/04 04:18:01;;;;;;;8.13;4.97;;;11.90;99.90;;;;;;5033219;28;20170;-74
2022/10/04 04:20:36;;;;;;;4.80;3.78;;;11.80;99.90;;;;;;5033021;28;20170;-74
2022/10/04 04:23:14;;;;;;;6.47;3.20;;;11.80;99.90;;;;;;5032901;28;20201;-74
2022/10/04 04:25:44;;;;;;;5.45;3.80;;;11.70;99.90;;;;;;5033223;28;20170;-74
2022/10/04 04:28:25;;;;;;;7.68;4.43;;;11.80;99.90;;;;;;5033247;28;20188;-74
2022/10/04 04:30:57;;;;;;;3.90;3.50;;;11.70;99.90;;;;;;5032758;28;20197;-74
2022/10/04 04:33:32;;;;;;;4.53;3.58;;;11.70;99.90;;;;;;5032820;28;20190;-73
2022/10/04 04:36:05;;;;;;;7.13;3.40;;;11.70;99.90;;;;;;5033080;28;20211;-74
2022/10/04 04:38:34;;;;;;;4.90;3.45;;;11.70;99.90;;;;;;5015310;28;20224;-74
2022/10/04 04:41:09;;;;;;;5.95;4.10;;;11.70;99.90;;;;;;5032871;28;20166;-75
2022/10/04 04:43:35;;;;;;;4.70;3.50;;;11.70;99.90;;;;;;5032936;28;20173;-75
2022/10/04 04:46:01;;;;;;;3.90;2.65;;;11.70;99.90;;;;;;4998558;28;20181;-74
2022/10/04 04:48:28;;;;;;;3.83;3.35;;;11.60;99.90;;;;;;5032652;28;20165;-74
2022/10/04 04:50:57;;;;;;;4.05;3.33;;;11.60;99.90;;;;;;5014670;28;20193;-74
2022/10/04 04:53:27;;;;;;;3.80;3.25;;;11.60;99.90;;;;;;5032545;28;20186;-74
2022/10/04 04:56:02;;;;;;;6.22;3.97;;;11.60;99.90;;;;;;5015009;28;20170;-74
2022/10/04 04:58:42;;;;;;;7.85;4.65;;;11.60;99.90;;;;;;5014632;28;20524;-74
2022/10/04 05:01:27;;;;;;;8.23;3.80;;;11.50;99.90;;;;;;5032140;28;20186;-74
2022/10/04 05:04:25;;;;;;;6.90;4.65;;;11.50;99.90;;;;;;5032522;28;20169;-74
2022/10/04 05:07:05;;;;;;;5.78;3.75;;;11.50;99.90;;;;;;4999282;28;20185;-74
2022/10/04 05:09:37;;;;;;;4.47;4.07;;;11.50;99.90;;;;;;5032052;28;20195;-74
2022/10/04 05:12:15;;;;;;;4.70;4.25;;;11.50;99.90;;;;;;5032101;28;20283;-74
2022/10/04 05:14:47;;;;;;;7.20;4.30;;;11.50;99.90;;;;;;5015018;28;20284;-74
2022/10/04 05:17:24;;;;;;;5.13;4.32;;;11.50;99.90;;;;;;5032416;28;20596;-74
2022/10/04 05:19:51;;;;;;;7.05;4.90;;;11.50;99.90;;;;;;5032164;28;20223;-73
2022/10/04 05:22:21;;;;;;;5.93;4.28;;;11.40;99.90;;;;;;5031900;28;20205;-74
2022/10/04 05:24:55;;;;;;;6.55;4.32;;;11.40;99.90;;;;;;5032235;28;20587;-74
2022/10/04 05:27:27;;;;;;;8.48;4.45;;;11.50;99.90;;;;;;5014624;28;20181;-74
2022/10/04 05:30:06;;;;;;;5.45;4.05;;;11.40;99.90;;;;;;5014198;28;20714;-74
2022/10/04 05:33:01;;;;;;;5.75;4.35;;;11.40;99.90;;;;;;5031899;28;20280;-74
2022/10/04 05:35:36;;;;;;;8.25;7.03;;;11.40;99.90;;;;;;5014181;28;20162;-74
2022/10/04 05:38:19;;;;;;;5.40;4.82;;;11.40;99.90;;;;;;5032049;28;20169;-74
2022/10/04 05:41:04;;;;;;;6.60;5.00;;;11.40;99.90;;;;;;5031504;28;20169;-74
2022/10/04 05:43:47;;;;;;;7.13;4.55;;;11.40;99.90;;;;;;5014158;28;20223;-73
2022/10/04 05:46:30;;;;;;;9.68;4.95;;;11.40;99.90;;;;;;5031985;28;20201;-75
2022/10/04 05:49:07;;;;;;;5.30;3.85;;;11.40;99.90;;;;;;5012438;28;20184;-76
2022/10/04 05:51:46;;;;;;;6.30;5.70;;;11.30;99.90;;;;;;5012545;28;20566;-73
2022/10/04 05:54:17;;;;;;;5.60;4.55;;;11.30;99.90;;;;;;5033730;28;20565;-76
2022/10/04 05:57:04;;;;;;;7.15;4.75;;;11.30;99.90;;;;;;5013869;28;20232;-75
2022/10/04 05:59:30;;;;;;;6.32;4.82;;;11.30;99.90;;;;;;5013630;28;20180;-75
2022/10/04 06:02:24;;;;;;;7.13;3.67;;;11.30;99.90;;;;;;5012779;28;20541;-75
2022/10/04 06:04:49;;;;;;;5.80;4.45;;;11.30;99.90;;;;;;5031522;28;20264;-75
2022/10/04 06:07:21;;;;;;;4.80;3.73;;;11.30;99.90;;;;;;5014040;28;20677;-75
2022/10/04 06:09:59;;;;;;;5.90;4.82;;;11.30;99.90;;;;;;5030912;28;20265;-75
2022/10/04 06:12:41;;;;;;;6.68;4.68;;;11.30;99.90;;;;;;5014329;28;20193;-75
2022/10/04 06:15:31;;;;;;;8.38;4.95;;;11.40;99.90;;;;;;5035433;28;20166;-75
2022/10/04 06:18:14;;;;;;;9.10;5.72;;;11.30;99.90;;;;;;5018562;28;20197;-75
2022/10/04 06:21:03;;;;;;;5.65;4.35;;;11.30;99.90;;;;;;5018079;28;20649;-76
2022/10/04 06:23:31;;;;;;;5.85;4.30;;;11.40;99.90;;;;;;5000225;28;20233;-76
2022/10/04 06:26:06;;;;;;;5.70;4.68;;;11.40;99.90;;;;;;4998023;28;20162;-76
2022/10/04 06:28:43;;;;;;;5.15;4.63;;;11.50;99.90;;;;;;5015004;28;20174;-76
2022/10/04 06:31:23;;;;;;;8.30;5.40;;;11.50;99.90;;;;;;4996609;28;20201;-74
2022/10/04 06:34:10;;;;;;;4.45;4.05;;;11.60;99.90;;;;;;4996661;28;20166;-74
2022/10/04 06:37:17;;;;;;;5.15;4.65;;;11.60;99.90;;;;;;5015466;28;20170;-74
2022/10/04 06:39:49;;;;;;;7.30;5.70;;;11.60;99.90;;;;;;5015860;28;20408;-74
2022/10/04 06:42:42;;;;;;;7.70;6.50;;;11.70;99.90;;;;;;5015790;28;20190;-75
2022/10/04 06:45:28;;;;;;;9.02;5.80;;;11.70;99.90;;;;;;5003850;28;20183;-74
2022/10/04 06:48:15;;;;;;;7.55;5.30;;;11.80;99.90;;;;;;5016494;28;20627;-74
2022/10/04 06:50:49;;;;;;;6.63;5.35;;;11.80;99.90;;;;;;5016015;28;20703;-76
2022/10/04 06:53:34;;;;;;;5.88;4.80;;;11.90;99.90;;;;;;5034468;28;20657;-75
2022/10/04 06:56:13;;;;;;;4.70;4.20;;;12.00;99.90;;;;;;5016860;28;20538;-75
2022/10/04 06:58:48;;;;;;;5.13;4.70;;;12.10;99.90;;;;;;5016968;28;20181;-76
2022/10/04 07:01:35;;;;;;;5.35;4.70;;;12.10;99.90;;;;;;5030196;28;20233;-75
2022/10/04 07:04:01;;;;;;;4.80;4.30;;;12.20;99.90;;;;;;5015063;28;20217;-74
2022/10/04 07:06:44;;;;;;;5.63;4.30;;;12.30;99.90;;;;;;5015114;28;20174;-75
2022/10/04 07:09:19;;;;;;;5.60;4.68;;;12.40;99.90;;;;;;5014490;28;20178;-75
2022/10/04 07:12:07;;;;;;;4.72;4.07;;;12.40;99.90;;;;;;5014407;28;20209;-75
2022/10/04 07:14:44;;;;;;;5.55;4.97;;;12.60;99.90;;;;;;5014728;28;20255;-74
2022/10/04 07:17:20;;;;;;;5.97;4.28;;;12.70;99.90;;;;;;5014406;28;20162;-74
2022/10/04 07:19:51;;;;;;;8.05;6.20;;;12.80;99.90;;;;;;5014373;28;20170;-74
2022/10/04 07:22:40;;;;;;;6.30;5.10;;;13.00;99.90;;;;;;5014593;28;20285;-73
2022/10/04 07:25:07;;;;;;;6.07;4.75;;;13.20;99.90;;;;;;5012902;28;20162;-73
2022/10/04 07:31:26;;;;;;;5.53;4.40;;;13.40;99.90;;;;;;5013743;28;20210;-74
2022/10/04 07:34:02;;;;;;;8.80;5.90;;;13.50;99.90;;;;;;5014033;28;20735;-75
2022/10/04 07:36:31;;;;;;;6.97;5.80;;;13.70;99.90;;;;;;5014097;28;20168;-75
2022/10/04 07:39:05;;;;;;;6.00;4.40;;;13.80;99.90;;;;;;5014233;28;20572;-76
2022/10/04 07:41:43;;;;;;;9.52;5.30;;;14.00;99.90;;;;;;5013698;28;20662;-76
2022/10/04 07:44:24;;;;;;;5.00;4.50;;;14.10;99.90;;;;;;5014082;28;20172;-73
2022/10/04 07:46:57;;;;;;;5.07;4.63;;;14.20;99.90;;;;;;5021218;28;20584;-74
2022/10/04 07:49:25;;;;;;;7.90;4.50;;;14.30;99.90;;;;;;5031090;28;21023;-73
2022/10/04 07:52:19;;;;;;;4.90;4.20;;;14.40;99.90;;;;;;5014455;28;20658;-73
2022/10/04 07:54:55;;;;;;;6.10;4.17;;;14.60;99.90;;;;;;5032146;28;20557;-73
2022/10/04 07:57:45;;;;;;;6.00;3.80;;;14.90;99.90;;;;;;5015191;28;20610;-73
2022/10/04 08:00:19;;;;;;;5.70;4.73;;;15.10;99.90;;;;;;5026322;28;21057;-73
2022/10/04 08:03:07;;;;;;;6.97;3.87;;;15.30;99.90;;;;;;5032639;28;21665;-73
2022/10/04 08:05:33;;;;;;;7.07;4.87;;;15.50;99.90;;;;;;5015801;28;20596;-73
2022/10/04 08:08:26;;;;;;;9.83;3.73;;;15.60;99.90;;;;;;5015793;28;20641;-73
2022/10/04 08:11:30;;;;;;;6.40;3.90;;;15.50;99.90;;;;;;5030053;28;21041;-73
2022/10/04 08:14:32;;;;;;;6.17;3.80;;;15.40;99.90;;;;;;5011085;28;20568;-73
2022/10/04 08:17:27;;;;;;;5.53;4.40;;;15.50;99.90;;;;;;5033152;28;20568;-74
2022/10/04 08:20:16;;;;;;;5.90;4.37;;;15.60;99.90;;;;;;5032686;28;20800;-77
2022/10/04 08:23:04;;;;;;;6.30;4.20;;;15.70;99.90;;;;;;5033727;28;20608;-77
2022/10/04 08:25:49;;;;;;;9.20;5.17;;;15.70;99.90;;;;;;5022301;28;20616;-78
2022/10/04 08:31:24;;;;;;;5.23;4.73;;;16.00;99.90;;;;;;5012777;28;20619;-77
2022/10/04 08:34:09;;;;;;;6.63;4.87;;;16.20;99.90;;;;;;5016571;28;20561;-78
2022/10/04 08:36:37;;;;;;;4.90;4.40;;;16.50;99.90;;;;;;5030964;28;21125;-78
2022/10/04 08:39:16;;;;;;;6.60;4.80;;;17.10;99.90;;;;;;5033904;28;20604;-77
2022/10/04 08:42:20;;;;;;;5.30;4.43;;;17.70;99.90;;;;;;5030649;28;20714;-77
2022/10/04 08:45:01;;;;;;;7.90;4.73;;;18.20;99.90;;;;;;5028160;28;21155;-78
2022/10/04 08:47:49;;;;;;;4.73;3.40;;;18.80;99.90;;;;;;5032822;28;20576;-78
2022/10/04 08:50:43;;;;;;;4.80;3.33;;;19.30;99.90;;;;;;5032236;28;21301;-78
2022/10/04 08:53:27;;;;;;;5.03;3.30;;;19.90;99.90;;;;;;5032384;28;20615;-78
2022/10/04 08:56:19;;;;;;;4.70;2.93;;;20.60;99.90;;;;;;5032579;28;20596;-78
2022/10/04 08:58:51;;;;;;;7.93;3.90;;;20.90;99.90;;;;;;5035013;28;20698;-78
2022/10/04 09:01:37;;;;;;;4.43;2.67;;;21.10;99.90;;;;;;5031960;28;20668;-73
2022/10/04 09:04:37;;;;;;;4.30;3.30;;;21.20;99.90;;;;;;5032341;28;20599;-73
2022/10/04 09:07:22;;;;;;;6.60;3.17;;;21.60;99.90;;;;;;5014725;28;21119;-73
2022/10/04 09:10:17;;;;;;;4.53;3.50;;;22.10;99.90;;;;;;5031767;28;20579;-73
2022/10/04 09:13:02;;;;;;;4.10;3.00;;;22.60;99.90;;;;;;5031932;28;20593;-73
2022/10/04 09:15:51;;;;;;;3.80;3.10;;;23.20;99.90;;;;;;5032177;28;21414;-73
2022/10/04 09:18:21;;;;;;;3.30;2.33;;;24.10;99.90;;;;;;4998130;28;20577;-73
2022/10/04 09:20:59;;;;;;;4.40;2.60;;;24.70;99.90;;;;;;5031521;28;20574;-73
2022/10/04 09:23:32;;;;;;;4.43;2.40;;;25.10;99.90;;;;;;5031714;28;20669;-73
2022/10/04 09:26:17;;;;;;;5.73;2.43;;;25.50;99.90;;;;;;5031966;28;21202;-73
2022/10/04 09:29:06;;;;;;;2.60;1.83;;;25.80;97.80;;;;;;5031899;28;20578;-73
2022/10/04 09:31:51;;;;;;;3.03;1.70;;;26.10;99.90;;;;;;5020700;28;20693;-73
2022/10/04 09:34:32;;;;;;;3.10;2.20;;;26.40;94.40;;;;;;5031895;28;20922;-73
2022/10/04 09:37:13;;;;;;;2.70;2.23;;;26.50;96.50;;;;;;5029475;28;20588;-74
2022/10/04 09:40:10;;;;;;;3.40;2.30;;;26.50;94.60;;;;;;5013586;28;20675;-74
2022/10/04 09:42:52;;;;;;;3.33;2.37;;;26.60;87.80;;;;;;5013703;28;20608;-73
2022/10/04 09:45:43;;;;;;;4.23;2.40;;;26.40;82.20;;;;;;5031847;28;20568;-72
2022/10/04 09:48:21;;;;;;;3.83;2.20;;;26.40;91.70;;;;;;5019736;28;20654;-73
2022/10/04 09:51:08;;;;;;;4.07;1.93;;;26.50;92.80;;;;;;5030529;28;20711;-74
2022/10/04 09:54:09;;;;;;;4.20;2.27;;;26.70;92.20;;;;;;5029522;28;20672;-73
2022/10/04 09:57:00;;;;;;;4.37;2.70;;;26.80;91.40;;;;;;4960328;28;20678;-72
2022/10/04 09:59:50;;;;;;;3.93;2.30;;;26.90;85.70;;;;;;5029852;28;20599;-73
2022/10/04 10:02:55;;;;;;;2.50;1.70;;;26.90;81.10;;;;;;5031363;28;20696;-74
2022/10/04 10:06:02;;;;;;;3.10;1.67;;;27.20;90.70;;;;;;5006692;28;20580;-73
2022/10/04 10:08:30;;;;;;;3.03;1.97;;;27.40;84.40;;;;;;5031332;28;20596;-73
2022/10/04 10:14:47;;;;;;;3.23;1.50;;;27.50;87.00;;;;;;5013961;28;20563;-73
2022/10/04 10:17:25;;;;;;;3.30;1.83;;;27.40;87.50;;;;;;5031454;28;20573;-73
2022/10/04 10:20:06;;;;;;;3.10;1.90;;;27.60;86.60;;;;;;5031063;28;20571;-73
2022/10/04 10:22:40;;;;;;;3.90;1.77;;;27.60;81.80;;;;;;5031019;28;20604;-73
2022/10/04 10:25:27;;;;;;;4.97;2.50;;;27.50;85.00;;;;;;5031279;28;20652;-73
2022/10/04 10:27:59;;;;;;;3.10;2.07;;;27.40;81.90;;;;;;5013603;28;20634;-73
2022/10/04 10:30:36;;;;;;;4.13;2.43;;;27.10;77.60;;;;;;5030978;28;20620;-73
2022/10/04 10:33:10;;;;;;;4.37;2.10;;;26.90;78.40;;;;;;5031068;28;20624;-73
2022/10/04 10:35:54;;;;;;;2.90;2.07;;;26.70;75.20;;;;;;5031341;28;20652;-73
2022/10/04 10:39:10;;;;;;;3.43;2.03;;;26.50;77.60;;;;;;5013585;28;21031;-73
2022/10/04 10:41:53;;;;;;;4.17;1.60;;;26.30;71.70;;;;;;4997568;28;20623;-73
2022/10/04 10:44:22;;;;;;;4.73;1.83;;;26.00;75.50;;;;;;5013891;28;20587;-73
2022/10/04 10:47:10;;;;;;;1.80;1.30;;;25.70;74.30;;;;;;5029774;28;20612;-73
2022/10/04 10:49:57;;;;;;;3.33;1.70;;;25.70;77.70;;;;;;5029406;28;20634;-73
2022/10/04 10:52:35;;;;;;;3.43;1.80;;;25.80;76.70;;;;;;5013146;28;21198;-73
2022/10/04 10:55:27;;;;;;;7.30;4.63;;;25.60;76.40;;;;;;5031041;28;21122;-73
2022/10/04 10:58:18;;;;;;;6.77;3.97;;;25.50;75.20;;;;;;5025450;28;20946;-73
2022/10/04 11:01:18;;;;;;;6.97;3.07;;;25.30;73.80;;;;;;5032351;28;20598;-73
2022/10/04 11:04:20;;;;;;;6.50;3.10;;;25.30;76.80;;;;;;5016946;28;20617;-72
2022/10/04 11:06:58;;;;;;;3.00;1.50;;;25.30;75.30;;;;;;5016913;28;20582;-73
2022/10/04 11:09:28;;;;;;;2.83;1.50;;;25.30;77.00;;;;;;5034397;28;20568;-73
2022/10/04 11:12:31;;;;;;;3.43;1.70;;;25.40;78.20;;;;;;5016522;28;20648;-73
2022/10/04 11:15:51;;;;;;;3.67;1.40;;;25.40;77.70;;;;;;5034549;28;20556;-73
2022/10/04 11:18:22;;;;;;;4.40;2.00;;;25.50;79.50;;;;;;5030636;28;20600;-73
2022/10/04 11:21:07;;;;;;;2.77;1.60;;;25.70;75.10;;;;;;5033537;28;20668;-73
2022/10/04 11:23:38;;;;;;;3.30;1.30;;;25.70;76.90;;;;;;5034411;28;20674;-73
2022/10/04 11:26:06;;;;;;;4.50;2.13;;;25.80;76.70;;;;;;5034551;28;20678;-72
2022/10/04 11:29:10;;;;;;;2.70;1.60;;;25.80;75.10;;;;;;5014333;28;20600;-73
2022/10/04 11:32:02;;;;;;;4.03;1.50;;;25.80;77.40;;;;;;5030641;28;20635;-73
2022/10/04 11:35:06;;;;;;;3.20;1.33;;;25.90;76.10;;;;;;5016236;28;20590;-73
2022/10/04 11:38:13;;;;;;;2.37;1.17;;;25.70;74.40;;;;;;5025883;28;20563;-73
2022/10/04 11:41:17;;;;;;;2.00;1.20;;;25.50;74.80;;;;;;4968872;28;20578;-73
2022/10/04 11:44:03;;;;;;;3.30;1.20;;;25.40;75.40;;;;;;4996707;28;20562;-73
2022/10/04 11:46:52;;;;;;;2.27;1.43;;;25.60;76.80;;;;;;5014206;28;20568;-73
2022/10/04 11:49:21;;;;;;;2.33;1.40;;;25.70;74.50;;;;;;5013442;28;20703;-73
2022/10/04 11:52:16;;;;;;;2.80;1.33;;;25.80;75.40;;;;;;5013868;28;20632;-72
2022/10/04 11:55:13;;;;;;;2.53;1.10;;;25.70;74.80;;;;;;4983784;28;20586;-73
2022/10/04 11:58:04;;;;;;;2.20;1.40;;;25.70;75.00;;;;;;5013941;28;21006;-72
2022/10/04 12:01:04;;;;;;;2.13;1.10;;;25.80;75.00;;;;;;5015806;28;20599;-73
2022/10/04 12:04:03;;;;;;;3.40;1.50;;;25.90;75.30;;;;;;4996934;28;20913;-73
2022/10/04 12:06:41;;;;;;;3.40;1.60;;;26.00;72.60;;;;;;5013678;28;21120;-73
2022/10/04 12:09:16;;;;;;;3.07;1.40;;;25.80;72.90;;;;;;5012528;28;20610;-72
2022/10/04 12:14:58;;;;;;;3.80;1.70;;;25.40;68.00;;;;;;5012390;28;20692;-73
2022/10/04 12:17:58;;;;;;;2.63;1.47;;;25.30;71.80;;;;;;4994749;28;20565;-72
2022/10/04 12:20:35;;;;;;;1.90;0.97;;;25.40;71.80;;;;;;4994381;28;21160;-72
2022/10/04 12:23:07;;;;;;;2.37;1.40;;;25.40;73.60;;;;;;5012020;28;21281;-72
2022/10/04 12:25:54;;;;;;;2.17;1.20;;;25.20;73.00;;;;;;5013301;28;20569;-72
2022/10/04 12:28:46;;;;;;;5.20;1.37;;;25.20;73.10;;;;;;5013588;28;20650;-73
2022/10/04 12:31:22;;;;;;;3.10;1.50;;;25.10;73.10;;;;;;4995167;28;20617;-72
2022/10/04 12:34:14;;;;;;;2.50;1.40;;;25.00;73.30;;;;;;5023740;28;20624;-72
2022/10/04 12:36:58;;;;;;;2.23;1.40;;;24.90;73.80;;;;;;5033197;28;20580;-72
2022/10/04 12:39:24;;;;;;;2.33;1.30;;;24.80;73.70;;;;;;5031250;28;20957;-72
2022/10/04 12:42:01;;;;;;;5.37;2.53;;;24.80;73.90;;;;;;5032446;28;20596;-72
2022/10/04 12:44:56;;;;;;;4.20;2.30;;;24.70;73.50;;;;;;5032370;28;20181;-74
2022/10/04 12:47:43;;;;;;;3.47;1.90;;;24.40;71.30;;;;;;5028156;28;20634;-71
2022/10/04 12:50:48;;;;;;;4.13;1.87;;;24.20;72.10;;;;;;5029245;28;21021;-73
2022/10/04 12:53:16;;;;;;;3.73;1.30;;;23.90;72.00;;;;;;4952021;29;20622;-72
2022/10/04 12:55:47;;;;;;;3.40;1.47;;;23.70;71.90;;;;;;5001534;28;21167;-72
2022/10/04 12:58:24;;;;;;;3.80;1.53;;;23.50;71.60;;;;;;5032653;28;20560;-71
2022/10/04 13:00:58;;;;;;;3.40;1.23;;;23.20;72.20;;;;;;5032198;28;20560;-72
2022/10/04 13:03:30;;;;;;;2.20;1.30;;;23.00;72.60;;;;;;5027765;28;20628;-72
2022/10/04 13:06:01;;;;;;;5.13;2.03;;;22.70;72.80;;;;;;5031781;28;20572;-72
2022/10/04 13:08:50;;;;;;;3.50;1.90;;;22.50;73.40;;;;;;5020766;28;20600;-72
2022/10/04 13:11:34;;;;;;;2.43;1.60;;;22.30;73.50;;;;;;5019783;28;20636;-72
2022/10/04 13:14:15;;;;;;;11.63;2.13;;;22.10;75.10;;;;;;5017590;28;20707;-72
2022/10/04 13:17:02;;;;;;;2.80;1.60;;;22.00;74.70;;;;;;5017762;28;20572;-71
2022/10/04 13:19:32;;;;;;;1.70;1.17;;;21.80;77.00;;;;;;5031167;28;20600;-72
2022/10/04 13:22:10;;;;;;;3.70;1.10;;;21.70;76.40;;;;;;5022843;28;20620;-72
2022/10/04 13:24:54;;;;;;;3.70;1.63;;;21.60;76.90;;;;;;5018699;28;20588;-72
2022/10/04 13:28:00;;;;;;;2.30;1.20;;;21.50;77.10;;;;;;5012264;28;20573;-72
2022/10/04 13:31:00;;;;;;;4.30;1.30;;;21.40;77.60;;;;;;5009635;28;20633;-73
2022/10/04 13:33:47;;;;;;;3.83;1.90;;;21.40;78.10;;;;;;5011999;28;20593;-72
2022/10/04 13:36:27;;;;;;;3.50;1.60;;;21.30;78.70;;;;;;5012210;28;20591;-72
2022/10/04 13:38:58;;;;;;;2.60;1.60;;;21.30;79.20;;;;;;5012158;28;20898;-72
2022/10/04 13:41:43;;;;;;;4.43;1.90;;;21.30;79.50;;;;;;5012245;28;20611;-73
2022/10/04 13:44:11;;;;;;;2.90;1.40;;;21.30;80.00;;;;;;5012357;28;20977;-74
2022/10/04 13:47:28;;;;;;;6.60;2.03;;;21.40;80.70;;;;;;4994603;28;20585;-74
2022/10/04 13:50:12;;;;;;;4.73;1.73;;;21.20;82.70;;;;;;4951580;28;20584;-74
2022/10/04 13:59:16;;;;;;;2.93;1.20;;;21.40;83.40;;;;;;4994573;28;20632;-74
2022/10/04 14:01:47;;;;;;;1.90;1.37;;;21.40;84.50;;;;;;5026143;28;20610;-74
2022/10/04 14:04:16;;;;;;;3.90;1.60;;;21.60;83.10;;;;;;5031060;28;20602;-74
2022/10/04 14:07:07;;;;;;;5.00;1.60;;;21.50;83.40;;;;;;5031514;28;20568;-73
2022/10/04 14:10:11;;;;;;;3.60;1.73;;;21.50;85.30;;;;;;5030630;28;20727;-74